sensor_id;sensor_type;location;lat;lon;timestamp;pressure;altitude;pressure_sealevel;temperature;humidity
72909;BME280;61051;62.624;17.950;2023-09-30T00:00:08;100131.05;;;9.63;100.00
72909;BME280;61051;62.624;17.950;2023-09-30T00:02:35;100133.51;;;9.21;100.00
72909;BME280;61051;62.624;17.950;2023-09-30T00:05:04;100127.12;;;8.93;100.00
72909;BME280;61051;62.624;17.950;2023-09-30T00:07:34;100126.92;;;8.98;100.00
72909;BME280;61051;62.624;17.950;2023-09-30T00:10:03;100120.78;;;8.76;100.00
72909;BME280;61051;62.624;17.950;2023-09-30T00:12:32;100112.79;;;8.73;100.00
72909;BME280;61051;62.624;17.950;2023-09-30T00:15:00;100107.23;;;8.69;100.00
72909;BME280;61051;62.624;17.950;2023-09-30T00:17:28;100115.87;;;8.61;100.00
72909;BME280;61051;62.624;17.950;2023-09-30T00:19:57;100126.25;;;8.36;100.00
72909;BME280;61051;62.624;17.950;2023-09-30T00:22:26;100131.40;;;8.44;100.00
72909;BME280;61051;62.624;17.950;2023-09-30T00:24:54;100136.74;;;8.45;100.00
72909;BME280;61051;62.624;17.950;2023-09-30T00:27:23;100140.81;;;8.34;100.00
72909;BME280;61051;62.624;17.950;2023-09-30T00:29:51;100138.13;;;8.24;100.00
72909;BME280;61051;62.624;17.950;2023-09-30T00:32:19;100130.95;;;8.18;100.00
72909;BME280;61051;62.624;17.950;2023-09-30T00:34:48;100125.27;;;8.01;100.00
72909;BME280;61051;62.624;17.950;2023-09-30T00:37:17;100126.43;;;8.04;100.00
72909;BME280;61051;62.624;17.950;2023-09-30T00:39:47;100125.28;;;7.93;100.00
72909;BME280;61051;62.624;17.950;2023-09-30T00:42:15;100122.19;;;8.07;100.00
72909;BME280;61051;62.624;17.950;2023-09-30T00:44:44;100115.84;;;7.96;100.00
72909;BME280;61051;62.624;17.950;2023-09-30T00:47:13;100111.07;;;7.77;100.00
72909;BME280;61051;62.624;17.950;2023-09-30T00:49:42;100110.13;;;7.66;100.00
72909;BME280;61051;62.624;17.950;2023-09-30T00:52:10;100106.61;;;7.56;100.00
72909;BME280;61051;62.624;17.950;2023-09-30T00:54:39;100106.60;;;7.61;100.00
72909;BME280;61051;62.624;17.950;2023-09-30T00:57:07;100107.94;;;7.65;100.00
72909;BME280;61051;62.624;17.950;2023-09-30T00:59:36;100103.17;;;7.75;100.00
72909;BME280;61051;62.624;17.950;2023-09-30T01:02:06;100098.83;;;7.65;100.00
72909;BME280;61051;62.624;17.950;2023-09-30T01:04:35;100097.99;;;7.57;100.00
72909;BME280;61051;62.624;17.950;2023-09-30T01:07:05;100099.01;;;7.66;100.00
72909;BME280;61051;62.624;17.950;2023-09-30T01:09:34;100105.66;;;7.50;100.00
72909;BME280;61051;62.624;17.950;2023-09-30T01:12:03;100104.20;;;7.56;100.00
72909;BME280;61051;62.624;17.950;2023-09-30T01:14:33;100100.15;;;7.60;100.00
72909;BME280;61051;62.624;17.950;2023-09-30T01:17:01;100098.67;;;7.50;100.00
72909;BME280;61051;62.624;17.950;2023-09-30T01:19:29;100094.28;;;7.50;100.00
72909;BME280;61051;62.624;17.950;2023-09-30T01:21:58;100089.92;;;7.56;100.00
72909;BME280;61051;62.624;17.950;2023-09-30T01:24:26;100083.69;;;7.52;100.00
72909;BME280;61051;62.624;17.950;2023-09-30T01:26:55;100082.20;;;7.64;100.00
72909;BME280;61051;62.624;17.950;2023-09-30T01:29:24;100077.89;;;7.49;100.00
72909;BME280;61051;62.624;17.950;2023-09-30T01:31:53;100076.91;;;7.52;100.00
72909;BME280;61051;62.624;17.950;2023-09-30T01:34:21;100069.47;;;7.67;100.00
72909;BME280;61051;62.624;17.950;2023-09-30T01:36:50;100062.04;;;7.78;100.00
72909;BME280;61051;62.624;17.950;2023-09-30T01:39:19;100051.92;;;7.90;100.00
72909;BME280;61051;62.624;17.950;2023-09-30T01:41:48;100046.41;;;8.03;100.00
72909;BME280;61051;62.624;17.950;2023-09-30T01:44:17;100035.62;;;8.08;100.00
72909;BME280;61051;62.624;17.950;2023-09-30T01:46:45;100030.31;;;7.98;100.00
72909;BME280;61051;62.624;17.950;2023-09-30T01:49:14;100028.97;;;7.97;100.00
72909;BME280;61051;62.624;17.950;2023-09-30T01:51:44;100020.62;;;7.90;100.00
72909;BME280;61051;62.624;17.950;2023-09-30T01:54:13;100026.26;;;8.21;100.00
72909;BME280;61051;62.624;17.950;2023-09-30T01:56:42;100037.35;;;8.39;100.00
72909;BME280;61051;62.624;17.950;2023-09-30T01:59:11;100037.84;;;8.29;100.00
72909;BME280;61051;62.624;17.950;2023-09-30T02:01:39;100029.14;;;8.36;100.00
72909;BME280;61051;62.624;17.950;2023-09-30T02:04:07;100025.74;;;8.31;100.00
72909;BME280;61051;62.624;17.950;2023-09-30T02:06:36;100022.72;;;8.35;100.00
72909;BME280;61051;62.624;17.950;2023-09-30T02:09:05;100031.24;;;8.50;100.00
72909;BME280;61051;62.624;17.950;2023-09-30T02:11:34;100037.27;;;8.67;100.00
72909;BME280;61051;62.624;17.950;2023-09-30T02:14:03;100034.61;;;8.63;100.00
72909;BME280;61051;62.624;17.950;2023-09-30T02:16:31;100036.14;;;8.72;100.00
72909;BME280;61051;62.624;17.950;2023-09-30T02:19:00;100031.37;;;8.70;100.00
72909;BME280;61051;62.624;17.950;2023-09-30T02:21:29;100024.55;;;8.61;100.00
72909;BME280;61051;62.624;17.950;2023-09-30T02:23:58;100020.63;;;8.49;100.00
72909;BME280;61051;62.624;17.950;2023-09-30T02:26:26;100016.65;;;8.44;100.00
72909;BME280;61051;62.624;17.950;2023-09-30T02:28:55;100015.70;;;8.50;100.00
72909;BME280;61051;62.624;17.950;2023-09-30T02:31:23;100015.80;;;8.39;100.00
72909;BME280;61051;62.624;17.950;2023-09-30T02:33:51;100014.81;;;8.41;100.00
72909;BME280;61051;62.624;17.950;2023-09-30T02:36:18;100010.37;;;8.43;100.00
72909;BME280;61051;62.624;17.950;2023-09-30T02:38:46;100006.10;;;8.39;100.00
72909;BME280;61051;62.624;17.950;2023-09-30T02:41:15;100001.71;;;8.39;100.00
72909;BME280;61051;62.624;17.950;2023-09-30T02:43:45;99993.82;;;8.42;100.00
72909;BME280;61051;62.624;17.950;2023-09-30T02:46:14;99989.99;;;8.48;100.00
72909;BME280;61051;62.624;17.950;2023-09-30T02:48:43;99982.64;;;8.47;100.00
72909;BME280;61051;62.624;17.950;2023-09-30T02:51:12;99978.43;;;8.50;100.00
72909;BME280;61051;62.624;17.950;2023-09-30T02:53:41;99983.20;;;8.43;100.00
72909;BME280;61051;62.624;17.950;2023-09-30T02:56:10;99985.53;;;8.51;100.00
72909;BME280;61051;62.624;17.950;2023-09-30T02:58:38;99970.20;;;8.58;100.00
72909;BME280;61051;62.624;17.950;2023-09-30T03:01:07;99963.73;;;8.64;100.00
72909;BME280;61051;62.624;17.950;2023-09-30T03:03:35;99962.62;;;8.49;100.00
72909;BME280;61051;62.624;17.950;2023-09-30T03:06:04;99949.46;;;8.60;100.00
72909;BME280;61051;62.624;17.950;2023-09-30T03:08:33;99941.05;;;8.49;100.00
72909;BME280;61051;62.624;17.950;2023-09-30T03:11:02;99925.19;;;8.50;100.00
72909;BME280;61051;62.624;17.950;2023-09-30T03:13:31;99917.93;;;8.51;100.00
72909;BME280;61051;62.624;17.950;2023-09-30T03:16:00;99920.39;;;8.42;100.00
72909;BME280;61051;62.624;17.950;2023-09-30T03:18:30;99942.54;;;8.46;100.00
72909;BME280;61051;62.624;17.950;2023-09-30T03:21:00;99956.58;;;8.61;100.00
72909;BME280;61051;62.624;17.950;2023-09-30T03:23:30;99956.49;;;8.47;100.00
72909;BME280;61051;62.624;17.950;2023-09-30T03:25:58;99955.40;;;8.51;100.00
72909;BME280;61051;62.624;17.950;2023-09-30T03:28:27;99941.45;;;8.50;100.00
72909;BME280;61051;62.624;17.950;2023-09-30T03:30:56;99940.72;;;8.48;100.00
72909;BME280;61051;62.624;17.950;2023-09-30T03:33:24;99951.97;;;8.46;100.00
72909;BME280;61051;62.624;17.950;2023-09-30T03:35:52;99952.23;;;8.42;100.00
72909;BME280;61051;62.624;17.950;2023-09-30T03:38:20;99953.14;;;8.47;100.00
72909;BME280;61051;62.624;17.950;2023-09-30T03:40:48;99958.10;;;8.42;100.00
72909;BME280;61051;62.624;17.950;2023-09-30T03:43:16;99957.81;;;8.35;100.00
72909;BME280;61051;62.624;17.950;2023-09-30T03:45:45;99956.64;;;8.34;100.00
72909;BME280;61051;62.624;17.950;2023-09-30T03:48:15;99953.93;;;8.34;100.00
72909;BME280;61051;62.624;17.950;2023-09-30T03:50:44;99953.12;;;8.23;100.00
72909;BME280;61051;62.624;17.950;2023-09-30T03:53:14;99948.71;;;8.11;100.00
72909;BME280;61051;62.624;17.950;2023-09-30T03:55:44;99945.15;;;8.12;100.00
72909;BME280;61051;62.624;17.950;2023-09-30T03:58:13;99942.98;;;7.95;100.00
72909;BME280;61051;62.624;17.950;2023-09-30T04:03:40;99951.04;;;7.93;100.00
72909;BME280;61051;62.624;17.950;2023-09-30T04:06:09;99944.84;;;8.13;100.00
72909;BME280;61051;62.624;17.950;2023-09-30T04:08:38;99943.86;;;8.24;100.00
72909;BME280;61051;62.624;17.950;2023-09-30T04:11:07;99938.40;;;8.33;100.00
72909;BME280;61051;62.624;17.950;2023-09-30T04:13:36;99931.90;;;8.44;100.00
72909;BME280;61051;62.624;17.950;2023-09-30T04:16:03;99925.46;;;8.34;100.00
72909;BME280;61051;62.624;17.950;2023-09-30T04:18:33;99923.91;;;8.21;100.00
72909;BME280;61051;62.624;17.950;2023-09-30T04:21:01;99919.54;;;8.16;100.00
72909;BME280;61051;62.624;17.950;2023-09-30T04:23:30;99918.51;;;8.11;100.00
72909;BME280;61051;62.624;17.950;2023-09-30T04:25:58;99913.85;;;8.00;100.00
72909;BME280;61051;62.624;17.950;2023-09-30T04:28:27;99909.56;;;8.00;100.00
72909;BME280;61051;62.624;17.950;2023-09-30T04:30:56;99908.30;;;8.02;100.00
72909;BME280;61051;62.624;17.950;2023-09-30T04:33:24;99912.93;;;7.77;100.00
72909;BME280;61051;62.624;17.950;2023-09-30T04:35:53;99915.59;;;7.76;100.00
72909;BME280;61051;62.624;17.950;2023-09-30T04:38:22;99906.62;;;7.58;100.00
72909;BME280;61051;62.624;17.950;2023-09-30T04:40:50;99900.89;;;7.63;100.00
72909;BME280;61051;62.624;17.950;2023-09-30T04:43:19;99896.23;;;7.67;100.00
72909;BME280;61051;62.624;17.950;2023-09-30T04:45:47;99890.55;;;7.61;100.00
72909;BME280;61051;62.624;17.950;2023-09-30T04:48:17;99880.73;;;7.50;100.00
72909;BME280;61051;62.624;17.950;2023-09-30T04:50:46;99879.75;;;7.47;100.00
72909;BME280;61051;62.624;17.950;2023-09-30T04:53:14;99878.16;;;7.27;100.00
72909;BME280;61051;62.624;17.950;2023-09-30T04:55:43;99875.75;;;7.08;100.00
72909;BME280;61051;62.624;17.950;2023-09-30T04:58:12;99872.73;;;7.17;100.00
72909;BME280;61051;62.624;17.950;2023-09-30T05:00:39;99872.19;;;7.23;100.00
72909;BME280;61051;62.624;17.950;2023-09-30T05:03:08;99871.69;;;7.08;100.00
72909;BME280;61051;62.624;17.950;2023-09-30T05:05:36;99870.09;;;7.17;100.00
72909;BME280;61051;62.624;17.950;2023-09-30T05:08:04;99870.65;;;7.19;100.00
72909;BME280;61051;62.624;17.950;2023-09-30T05:10:34;99871.53;;;7.21;100.00
72909;BME280;61051;62.624;17.950;2023-09-30T05:13:03;99872.18;;;7.14;100.00
72909;BME280;61051;62.624;17.950;2023-09-30T05:15:31;99874.17;;;7.07;100.00
72909;BME280;61051;62.624;17.950;2023-09-30T05:18:00;99875.34;;;7.14;100.00
72909;BME280;61051;62.624;17.950;2023-09-30T05:20:29;99878.04;;;7.16;100.00
72909;BME280;61051;62.624;17.950;2023-09-30T05:22:58;99878.18;;;7.28;100.00
72909;BME280;61051;62.624;17.950;2023-09-30T05:25:27;99875.84;;;7.21;100.00
72909;BME280;61051;62.624;17.950;2023-09-30T05:27:56;99878.77;;;7.03;100.00
72909;BME280;61051;62.624;17.950;2023-09-30T05:30:24;99881.06;;;6.86;100.00
72909;BME280;61051;62.624;17.950;2023-09-30T05:32:53;99881.45;;;6.87;100.00
72909;BME280;61051;62.624;17.950;2023-09-30T05:35:21;99876.16;;;6.88;100.00
72909;BME280;61051;62.624;17.950;2023-09-30T05:37:50;99873.40;;;6.90;100.00
72909;BME280;61051;62.624;17.950;2023-09-30T05:40:19;99876.50;;;6.89;100.00
72909;BME280;61051;62.624;17.950;2023-09-30T05:42:48;99877.39;;;6.98;100.00
72909;BME280;61051;62.624;17.950;2023-09-30T05:45:18;99876.59;;;7.15;100.00
72909;BME280;61051;62.624;17.950;2023-09-30T05:47:47;99877.76;;;7.03;100.00
72909;BME280;61051;62.624;17.950;2023-09-30T05:50:16;99883.68;;;6.99;100.00
72909;BME280;61051;62.624;17.950;2023-09-30T05:52:45;99885.80;;;7.03;100.00
72909;BME280;61051;62.624;17.950;2023-09-30T05:55:13;99881.68;;;7.08;100.00
72909;BME280;61051;62.624;17.950;2023-09-30T05:57:41;99882.30;;;7.21;100.00
72909;BME280;61051;62.624;17.950;2023-09-30T06:00:12;99883.14;;;7.15;100.00
72909;BME280;61051;62.624;17.950;2023-09-30T06:02:41;99886.46;;;7.45;100.00
72909;BME280;61051;62.624;17.950;2023-09-30T06:05:09;99888.36;;;7.60;100.00
72909;BME280;61051;62.624;17.950;2023-09-30T06:07:38;99891.86;;;7.67;100.00
72909;BME280;61051;62.624;17.950;2023-09-30T06:10:06;99891.26;;;7.75;100.00
72909;BME280;61051;62.624;17.950;2023-09-30T06:12:34;99891.54;;;7.73;100.00
72909;BME280;61051;62.624;17.950;2023-09-30T06:15:02;99895.84;;;7.70;100.00
72909;BME280;61051;62.624;17.950;2023-09-30T06:17:31;99904.16;;;7.71;100.00
72909;BME280;61051;62.624;17.950;2023-09-30T06:20:00;99909.75;;;7.65;100.00
72909;BME280;61051;62.624;17.950;2023-09-30T06:22:31;99910.30;;;7.72;100.00
72909;BME280;61051;62.624;17.950;2023-09-30T06:25:00;99908.99;;;7.76;100.00
72909;BME280;61051;62.624;17.950;2023-09-30T06:27:33;99907.16;;;7.81;100.00
72909;BME280;61051;62.624;17.950;2023-09-30T06:30:03;99909.22;;;7.93;100.00
72909;BME280;61051;62.624;17.950;2023-09-30T06:32:31;99914.40;;;8.12;100.00
72909;BME280;61051;62.624;17.950;2023-09-30T06:35:00;99917.80;;;8.30;100.00
72909;BME280;61051;62.624;17.950;2023-09-30T06:37:27;99918.98;;;8.38;100.00
72909;BME280;61051;62.624;17.950;2023-09-30T06:39:55;99915.16;;;8.44;100.00
72909;BME280;61051;62.624;17.950;2023-09-30T06:42:24;99910.01;;;8.45;100.00
72909;BME280;61051;62.624;17.950;2023-09-30T06:44:53;99907.93;;;8.65;100.00
72909;BME280;61051;62.624;17.950;2023-09-30T06:47:22;99906.45;;;8.72;100.00
72909;BME280;61051;62.624;17.950;2023-09-30T06:49:50;99902.10;;;8.61;100.00
72909;BME280;61051;62.624;17.950;2023-09-30T06:52:19;99900.05;;;8.79;100.00
72909;BME280;61051;62.624;17.950;2023-09-30T06:54:48;99894.66;;;8.94;100.00
72909;BME280;61051;62.624;17.950;2023-09-30T06:57:17;99900.49;;;9.02;100.00
72909;BME280;61051;62.624;17.950;2023-09-30T06:59:47;99900.26;;;9.20;99.15
72909;BME280;61051;62.624;17.950;2023-09-30T07:02:17;99897.19;;;9.47;98.05
72909;BME280;61051;62.624;17.950;2023-09-30T07:04:45;99896.46;;;9.76;96.79
72909;BME280;61051;62.624;17.950;2023-09-30T07:07:13;99892.49;;;9.86;97.52
72909;BME280;61051;62.624;17.950;2023-09-30T07:09:43;99894.13;;;10.01;97.87
72909;BME280;61051;62.624;17.950;2023-09-30T07:12:12;99892.10;;;10.04;95.86
72909;BME280;61051;62.624;17.950;2023-09-30T07:14:41;99889.46;;;10.15;94.23
72909;BME280;61051;62.624;17.950;2023-09-30T07:17:08;99887.01;;;10.06;95.70
72909;BME280;61051;62.624;17.950;2023-09-30T07:19:37;99884.14;;;10.23;96.28
72909;BME280;61051;62.624;17.950;2023-09-30T07:22:06;99885.44;;;10.41;92.91
72909;BME280;61051;62.624;17.950;2023-09-30T07:24:36;99887.48;;;10.66;91.50
72909;BME280;61051;62.624;17.950;2023-09-30T07:27:04;99882.08;;;11.05;89.73
72909;BME280;61051;62.624;17.950;2023-09-30T07:29:34;99875.84;;;11.26;87.98
72909;BME280;61051;62.624;17.950;2023-09-30T07:32:03;99876.02;;;11.39;85.37
72909;BME280;61051;62.624;17.950;2023-09-30T07:34:31;99869.79;;;11.48;85.46
72909;BME280;61051;62.624;17.950;2023-09-30T07:37:00;99869.88;;;11.51;86.03
72909;BME280;61051;62.624;17.950;2023-09-30T07:39:28;99872.17;;;11.46;85.64
72909;BME280;61051;62.624;17.950;2023-09-30T07:41:56;99876.46;;;11.32;84.41
72909;BME280;61051;62.624;17.950;2023-09-30T07:44:24;99879.21;;;11.24;85.27
72909;BME280;61051;62.624;17.950;2023-09-30T07:46:54;99882.80;;;11.23;87.15
72909;BME280;61051;62.624;17.950;2023-09-30T07:49:22;99886.17;;;11.20;86.81
72909;BME280;61051;62.624;17.950;2023-09-30T07:51:51;99885.27;;;11.35;87.45
72909;BME280;61051;62.624;17.950;2023-09-30T07:54:21;99886.37;;;11.33;87.00
72909;BME280;61051;62.624;17.950;2023-09-30T07:56:49;99888.18;;;11.33;87.09
72909;BME280;61051;62.624;17.950;2023-09-30T07:59:19;99883.90;;;11.52;85.26
72909;BME280;61051;62.624;17.950;2023-09-30T08:01:48;99882.49;;;11.59;83.96
72909;BME280;61051;62.624;17.950;2023-09-30T08:04:18;99884.71;;;11.52;83.87
72909;BME280;61051;62.624;17.950;2023-09-30T08:06:46;99884.68;;;11.43;85.20
72909;BME280;61051;62.624;17.950;2023-09-30T08:09:14;99884.23;;;11.58;84.42
72909;BME280;61051;62.624;17.950;2023-09-30T08:11:43;99880.48;;;11.60;84.69
72909;BME280;61051;62.624;17.950;2023-09-30T08:14:11;99882.44;;;11.73;85.18
72909;BME280;61051;62.624;17.950;2023-09-30T08:16:39;99881.02;;;11.93;82.65
72909;BME280;61051;62.624;17.950;2023-09-30T08:19:08;99887.27;;;12.04;82.31
72909;BME280;61051;62.624;17.950;2023-09-30T08:21:37;99885.96;;;12.00;82.21
72909;BME280;61051;62.624;17.950;2023-09-30T08:24:06;99883.52;;;12.23;81.76
72909;BME280;61051;62.624;17.950;2023-09-30T08:26:34;99882.70;;;12.16;81.47
72909;BME280;61051;62.624;17.950;2023-09-30T08:29:03;99881.79;;;12.41;81.27
72909;BME280;61051;62.624;17.950;2023-09-30T08:31:31;99880.09;;;12.39;80.02
72909;BME280;61051;62.624;17.950;2023-09-30T08:34:00;99879.65;;;12.58;79.79
72909;BME280;61051;62.624;17.950;2023-09-30T08:36:29;99878.28;;;12.65;81.48
72909;BME280;61051;62.624;17.950;2023-09-30T08:38:58;99878.27;;;12.74;80.34
72909;BME280;61051;62.624;17.950;2023-09-30T08:41:30;99878.59;;;12.74;80.75
72909;BME280;61051;62.624;17.950;2023-09-30T08:44:01;99876.22;;;13.17;78.95
72909;BME280;61051;62.624;17.950;2023-09-30T08:46:30;99877.51;;;13.33;78.93
72909;BME280;61051;62.624;17.950;2023-09-30T08:49:00;99876.43;;;13.45;78.44
72909;BME280;61051;62.624;17.950;2023-09-30T08:51:30;99876.20;;;13.49;76.29
72909;BME280;61051;62.624;17.950;2023-09-30T08:53:59;99875.96;;;13.74;76.17
72909;BME280;61051;62.624;17.950;2023-09-30T08:56:29;99877.49;;;13.80;75.72
72909;BME280;61051;62.624;17.950;2023-09-30T08:58:58;99884.48;;;14.08;74.96
72909;BME280;61051;62.624;17.950;2023-09-30T09:01:29;99886.43;;;14.18;73.65
72909;BME280;61051;62.624;17.950;2023-09-30T09:03:57;99887.51;;;14.23;73.79
72909;BME280;61051;62.624;17.950;2023-09-30T09:06:26;99896.10;;;14.48;74.17
72909;BME280;61051;62.624;17.950;2023-09-30T09:09:13;99900.33;;;14.78;70.89
72909;BME280;61051;62.624;17.950;2023-09-30T09:11:41;99902.30;;;14.89;71.52
72909;BME280;61051;62.624;17.950;2023-09-30T09:14:10;99905.27;;;14.82;70.77
72909;BME280;61051;62.624;17.950;2023-09-30T09:16:50;99908.46;;;14.48;70.83
72909;BME280;61051;62.624;17.950;2023-09-30T09:19:19;99911.35;;;14.14;72.77
72909;BME280;61051;62.624;17.950;2023-09-30T09:21:57;99903.91;;;13.82;74.73
72909;BME280;61051;62.624;17.950;2023-09-30T09:24:27;99913.16;;;13.49;77.80
72909;BME280;61051;62.624;17.950;2023-09-30T09:27:13;99920.38;;;13.20;79.89
72909;BME280;61051;62.624;17.950;2023-09-30T09:29:43;99924.96;;;12.97;80.57
72909;BME280;61051;62.624;17.950;2023-09-30T09:32:13;99925.05;;;12.77;81.62
72909;BME280;61051;62.624;17.950;2023-09-30T09:34:44;99924.88;;;12.56;82.52
72909;BME280;61051;62.624;17.950;2023-09-30T09:37:14;99927.83;;;12.43;82.38
72909;BME280;61051;62.624;17.950;2023-09-30T09:39:51;99927.39;;;12.35;82.90
72909;BME280;61051;62.624;17.950;2023-09-30T09:42:28;99932.22;;;12.23;83.24
72909;BME280;61051;62.624;17.950;2023-09-30T09:44:59;99929.47;;;12.38;82.80
72909;BME280;61051;62.624;17.950;2023-09-30T09:47:29;99934.28;;;12.38;81.52
72909;BME280;61051;62.624;17.950;2023-09-30T09:49:59;99931.66;;;12.70;80.52
72909;BME280;61051;62.624;17.950;2023-09-30T09:52:34;99933.35;;;13.86;76.78
72909;BME280;61051;62.624;17.950;2023-09-30T09:55:04;99937.11;;;14.56;70.80
72909;BME280;61051;62.624;17.950;2023-09-30T09:57:33;99937.13;;;14.70;68.60
72909;BME280;61051;62.624;17.950;2023-09-30T10:03:17;99944.94;;;15.00;65.81
72909;BME280;61051;62.624;17.950;2023-09-30T10:05:46;99945.36;;;14.85;66.55
72909;BME280;61051;62.624;17.950;2023-09-30T10:08:16;99945.24;;;14.71;67.11
72909;BME280;61051;62.624;17.950;2023-09-30T10:10:47;99945.57;;;15.38;64.94
72909;BME280;61051;62.624;17.950;2023-09-30T10:14:30;99948.14;;;15.25;63.79
72909;BME280;61051;62.624;17.950;2023-09-30T10:17:00;99949.51;;;15.11;65.43
72909;BME280;61051;62.624;17.950;2023-09-30T10:19:28;99948.71;;;15.52;62.89
72909;BME280;61051;62.624;17.950;2023-09-30T10:22:29;99943.56;;;16.03;62.22
72909;BME280;61051;62.624;17.950;2023-09-30T10:24:59;99949.71;;;15.84;61.90
72909;BME280;61051;62.624;17.950;2023-09-30T10:27:30;99955.77;;;16.00;62.01
72909;BME280;61051;62.624;17.950;2023-09-30T10:29:59;99967.47;;;15.47;59.05
72909;BME280;61051;62.624;17.950;2023-09-30T10:36:03;99970.08;;;14.39;63.77
72909;BME280;61051;62.624;17.950;2023-09-30T10:38:37;99968.39;;;14.13;63.92
72909;BME280;61051;62.624;17.950;2023-09-30T10:41:07;99977.87;;;13.98;64.85
72909;BME280;61051;62.624;17.950;2023-09-30T10:43:38;99982.86;;;13.89;64.81
72909;BME280;61051;62.624;17.950;2023-09-30T10:46:38;99983.42;;;13.66;65.16
72909;BME280;61051;62.624;17.950;2023-09-30T10:49:16;99984.01;;;13.66;66.73
72909;BME280;61051;62.624;17.950;2023-09-30T10:51:45;99992.60;;;13.62;67.33
72909;BME280;61051;62.624;17.950;2023-09-30T10:54:13;99998.49;;;13.55;67.29
72909;BME280;61051;62.624;17.950;2023-09-30T10:56:41;100007.09;;;13.50;68.05
72909;BME280;61051;62.624;17.950;2023-09-30T10:59:09;100011.05;;;13.56;67.73
72909;BME280;61051;62.624;17.950;2023-09-30T11:01:37;100009.68;;;13.85;65.96
72909;BME280;61051;62.624;17.950;2023-09-30T11:04:06;100015.49;;;13.57;66.53
72909;BME280;61051;62.624;17.950;2023-09-30T11:06:34;100016.56;;;13.57;66.83
72909;BME280;61051;62.624;17.950;2023-09-30T11:09:02;100018.91;;;13.49;67.35
72909;BME280;61051;62.624;17.950;2023-09-30T11:11:33;100022.42;;;13.43;67.87
72909;BME280;61051;62.624;17.950;2023-09-30T11:14:02;100022.07;;;13.38;68.17
72909;BME280;61051;62.624;17.950;2023-09-30T11:16:30;100029.19;;;13.28;68.28
72909;BME280;61051;62.624;17.950;2023-09-30T11:18:58;100035.49;;;13.19;69.60
72909;BME280;61051;62.624;17.950;2023-09-30T11:21:26;100038.11;;;13.16;69.57
72909;BME280;61051;62.624;17.950;2023-09-30T11:23:56;100037.64;;;13.15;70.20
72909;BME280;61051;62.624;17.950;2023-09-30T11:26:29;100043.18;;;13.13;70.57
72909;BME280;61051;62.624;17.950;2023-09-30T11:29:05;100042.65;;;12.98;70.65
72909;BME280;61051;62.624;17.950;2023-09-30T11:31:33;100045.71;;;12.92;71.33
72909;BME280;61051;62.624;17.950;2023-09-30T11:34:01;100045.83;;;12.83;72.66
72909;BME280;61051;62.624;17.950;2023-09-30T11:36:30;100050.78;;;12.93;71.85
72909;BME280;61051;62.624;17.950;2023-09-30T11:38:59;100048.31;;;12.84;72.89
72909;BME280;61051;62.624;17.950;2023-09-30T11:41:33;100055.88;;;12.83;73.09
72909;BME280;61051;62.624;17.950;2023-09-30T11:44:04;100055.46;;;12.87;71.42
72909;BME280;61051;62.624;17.950;2023-09-30T11:46:47;100059.04;;;12.69;71.97
72909;BME280;61051;62.624;17.950;2023-09-30T11:49:26;100066.78;;;12.57;74.74
72909;BME280;61051;62.624;17.950;2023-09-30T11:51:57;100065.69;;;12.57;73.88
72909;BME280;61051;62.624;17.950;2023-09-30T11:54:30;100073.07;;;12.40;74.24
72909;BME280;61051;62.624;17.950;2023-09-30T11:57:01;100073.03;;;12.47;73.75
72909;BME280;61051;62.624;17.950;2023-09-30T11:59:29;100081.59;;;12.40;73.55
72909;BME280;61051;62.624;17.950;2023-09-30T12:01:57;100082.58;;;12.28;74.02
72909;BME280;61051;62.624;17.950;2023-09-30T12:04:25;100086.07;;;12.17;73.75
72909;BME280;61051;62.624;17.950;2023-09-30T12:06:54;100084.22;;;12.33;73.83
72909;BME280;61051;62.624;17.950;2023-09-30T12:09:23;100091.11;;;12.19;74.13
72909;BME280;61051;62.624;17.950;2023-09-30T12:11:51;100093.00;;;12.28;74.06
72909;BME280;61051;62.624;17.950;2023-09-30T12:14:21;100094.99;;;12.22;74.63
72909;BME280;61051;62.624;17.950;2023-09-30T12:16:49;100099.20;;;12.08;74.56
72909;BME280;61051;62.624;17.950;2023-09-30T12:19:18;100102.00;;;12.15;74.87
72909;BME280;61051;62.624;17.950;2023-09-30T12:21:46;100107.85;;;12.10;74.79
72909;BME280;61051;62.624;17.950;2023-09-30T12:24:15;100114.48;;;12.00;75.42
72909;BME280;61051;62.624;17.950;2023-09-30T12:26:43;100116.30;;;12.00;75.41
72909;BME280;61051;62.624;17.950;2023-09-30T12:29:11;100118.54;;;12.00;74.94
72909;BME280;61051;62.624;17.950;2023-09-30T12:31:40;100118.17;;;11.91;75.31
72909;BME280;61051;62.624;17.950;2023-09-30T12:34:08;100118.00;;;11.95;75.73
72909;BME280;61051;62.624;17.950;2023-09-30T12:36:36;100125.79;;;11.89;75.77
72909;BME280;61051;62.624;17.950;2023-09-30T12:39:04;100131.67;;;11.78;76.31
72909;BME280;61051;62.624;17.950;2023-09-30T12:41:33;100134.77;;;11.78;77.51
72909;BME280;61051;62.624;17.950;2023-09-30T12:44:02;100137.03;;;11.74;77.72
72909;BME280;61051;62.624;17.950;2023-09-30T12:46:31;100138.68;;;11.67;78.80
72909;BME280;61051;62.624;17.950;2023-09-30T12:48:59;100141.71;;;11.54;80.68
72909;BME280;61051;62.624;17.950;2023-09-30T12:51:28;100146.65;;;11.44;81.72
72909;BME280;61051;62.624;17.950;2023-09-30T12:53:57;100150.57;;;11.39;83.06
72909;BME280;61051;62.624;17.950;2023-09-30T12:56:25;100157.44;;;11.35;85.28
72909;BME280;61051;62.624;17.950;2023-09-30T12:58:54;100157.18;;;11.15;85.87
72909;BME280;61051;62.624;17.950;2023-09-30T13:01:23;100161.14;;;11.11;86.54
72909;BME280;61051;62.624;17.950;2023-09-30T13:03:52;100168.19;;;11.01;90.12
72909;BME280;61051;62.624;17.950;2023-09-30T13:06:21;100171.95;;;10.92;91.25